createdAt,value
2023-03-13T00:02:22.659Z,102046.30
2023-03-13T00:04:51.905Z,102052.50
2023-03-13T00:07:27.839Z,102046.64
2023-03-13T00:10:16.287Z,102052.17
2023-03-13T00:12:45.296Z,102053.91
2023-03-13T00:15:18.776Z,102058.05
2023-03-13T00:17:47.393Z,102059.46
2023-03-13T00:20:18.808Z,102055.02
2023-03-13T00:22:53.440Z,102058.31
2023-03-13T00:25:22.116Z,102058.02
2023-03-13T00:27:50.756Z,102059.25
2023-03-13T00:30:22.975Z,102059.98
2023-03-13T00:32:56.651Z,102063.61
2023-03-13T00:35:25.915Z,102062.95
2023-03-13T00:37:54.791Z,102063.83
2023-03-13T00:40:27.645Z,102062.83
2023-03-13T00:42:56.740Z,102065.95
2023-03-13T00:45:25.224Z,102065.08
2023-03-13T00:47:54.549Z,102068.89
2023-03-13T00:50:22.954Z,102072.87
2023-03-13T00:52:51.563Z,102075.29
2023-03-13T00:55:19.853Z,102079.08
2023-03-13T00:57:48.133Z,102081.66
2023-03-13T01:00:17.430Z,102084.92
2023-03-13T01:02:45.891Z,102088.73
2023-03-13T01:05:15.187Z,102089.05
2023-03-13T01:07:43.696Z,102089.30
2023-03-13T01:10:18.966Z,102087.86
2023-03-13T01:12:47.212Z,102088.54
2023-03-13T01:15:16.925Z,102094.23
2023-03-13T01:17:50.018Z,102094.73
2023-03-13T01:20:20.772Z,102099.88
2023-03-13T01:22:49.228Z,102099.88
2023-03-13T01:25:24.984Z,102103.81
2023-03-13T01:27:55.197Z,102105.54
2023-03-13T01:30:24.376Z,102108.63
2023-03-13T01:32:55.043Z,102111.53
2023-03-13T01:35:23.493Z,102114.45
2023-03-13T01:37:55.160Z,102117.23
2023-03-13T01:40:24.282Z,102118.46
2023-03-13T01:42:59.288Z,102124.89
2023-03-13T01:46:06.384Z,102128.37
2023-03-13T01:49:06.193Z,102129.07
2023-03-13T01:51:46.126Z,102129.72
2023-03-13T01:54:28.652Z,102136.61
2023-03-13T01:57:02.559Z,102140.73
2023-03-13T01:59:34.250Z,102145.38
2023-03-13T02:02:02.918Z,102145.36
2023-03-13T02:04:36.810Z,102148.23
2023-03-13T02:07:09.484Z,102155.05
2023-03-13T02:09:38.072Z,102159.69
2023-03-13T02:12:11.163Z,102165.51
2023-03-13T02:14:42.327Z,102174.30
2023-03-13T02:17:11.701Z,102178.33
2023-03-13T02:19:52.095Z,102179.71
2023-03-13T02:22:27.721Z,102184.55
2023-03-13T02:25:11.553Z,102190.98
2023-03-13T02:27:40.229Z,102192.45
2023-03-13T02:30:09.888Z,102194.94
2023-03-13T02:32:38.511Z,102202.47
2023-03-13T02:35:09.197Z,102204.67
2023-03-13T02:37:38.144Z,102208.42
2023-03-13T02:40:11.874Z,102211.95
2023-03-13T02:42:44.246Z,102218.04
2023-03-13T02:45:16.495Z,102222.37
2023-03-13T02:47:45.153Z,102228.58
2023-03-13T02:50:13.964Z,102224.24
2023-03-13T02:53:02.836Z,102227.30
2023-03-13T02:55:35.197Z,102231.63
2023-03-13T02:58:04.006Z,102235.58
2023-03-13T03:00:36.064Z,102239.05
2023-03-13T03:03:04.648Z,102234.95
2023-03-13T03:05:33.116Z,102238.16
2023-03-13T03:08:02.423Z,102236.23
2023-03-13T03:10:31.431Z,102244.65
2023-03-13T03:13:01.223Z,102250.67
2023-03-13T03:15:30.929Z,102250.45
2023-03-13T03:17:59.658Z,102248.81
2023-03-13T03:20:28.398Z,102259.59
2023-03-13T03:22:58.622Z,102261.40
2023-03-13T03:25:28.531Z,102268.73
2023-03-13T03:27:57.316Z,102273.94
2023-03-13T03:30:26.316Z,102279.30
2023-03-13T03:32:54.681Z,102276.35
2023-03-13T03:35:23.898Z,102280.50
2023-03-13T03:37:53.795Z,102280.83
2023-03-13T03:40:22.688Z,102278.55
2023-03-13T03:42:53.010Z,102281.80
2023-03-13T03:45:41.164Z,102280.69
2023-03-13T03:48:10.656Z,102284.27
2023-03-13T03:50:39.166Z,102288.54
2023-03-13T03:53:13.981Z,102291.92
2023-03-13T03:55:42.347Z,102294.82
2023-03-13T03:58:10.825Z,102299.11
2023-03-13T04:01:07.876Z,102302.85
2023-03-13T04:03:36.634Z,102311.41
2023-03-13T04:06:07.307Z,102310.17
2023-03-13T04:08:36.495Z,102313.06
2023-03-13T04:11:05.281Z,102314.06
2023-03-13T04:13:38.577Z,102313.02
2023-03-13T04:16:08.502Z,102317.81
2023-03-13T04:18:38.003Z,102327.11
2023-03-13T04:21:06.880Z,102323.81
2023-03-13T04:23:46.526Z,102326.21
2023-03-13T04:26:15.729Z,102332.80
2023-03-13T04:28:44.613Z,102332.13
2023-03-13T04:31:17.465Z,102331.66
2023-03-13T04:34:04.408Z,102340.00
2023-03-13T04:37:02.383Z,102340.90
2023-03-13T04:39:53.954Z,102345.84
2023-03-13T04:42:53.842Z,102350.20
2023-03-13T04:46:01.064Z,102352.99
2023-03-13T04:48:52.731Z,102351.77
2023-03-13T04:51:32.791Z,102356.06
2023-03-13T04:54:21.643Z,102361.21
2023-03-13T04:57:11.425Z,102361.19
2023-03-13T04:59:59.491Z,102362.89
2023-03-13T05:02:55.589Z,102365.11
2023-03-13T05:05:47.416Z,102367.33
2023-03-13T05:08:36.520Z,102375.60
2023-03-13T05:11:21.050Z,102374.19
2023-03-13T05:14:11.851Z,102381.10
2023-03-13T05:17:06.856Z,102383.17
2023-03-13T05:19:54.579Z,102383.37
2023-03-13T05:22:31.249Z,102388.20
2023-03-13T05:25:19.757Z,102394.11
2023-03-13T05:28:08.562Z,102394.16
2023-03-13T05:31:06.362Z,102398.50
2023-03-13T05:33:40.638Z,102393.88
2023-03-13T05:36:27.964Z,102401.05
2023-03-13T05:39:18.353Z,102401.84
2023-03-13T05:41:50.069Z,102408.35
2023-03-13T05:44:39.205Z,102409.24
2023-03-13T05:47:39.523Z,102414.23
2023-03-13T05:50:08.702Z,102411.25
2023-03-13T05:52:57.063Z,102416.91
2023-03-13T05:55:38.018Z,102417.55
2023-03-13T05:58:25.134Z,102421.09
2023-03-13T06:01:12.252Z,102424.79
2023-03-13T06:03:57.239Z,102430.25
2023-03-13T06:06:26.514Z,102430.89
2023-03-13T06:09:04.411Z,102430.98
2023-03-13T06:11:35.050Z,102427.62
2023-03-13T06:14:05.365Z,102424.65
2023-03-13T06:16:57.097Z,102423.64
2023-03-13T06:19:27.140Z,102422.33
2023-03-13T06:22:02.045Z,102419.30
2023-03-13T06:24:31.061Z,102415.89
2023-03-13T06:26:59.517Z,102414.73
2023-03-13T06:29:28.074Z,102414.66
2023-03-13T06:31:56.441Z,102416.32
2023-03-13T06:34:32.333Z,102411.17
2023-03-13T06:37:01.034Z,102406.98
2023-03-13T06:39:30.109Z,102410.01
2023-03-13T06:41:58.903Z,102411.79
2023-03-13T06:44:27.476Z,102410.69
2023-03-13T06:46:55.931Z,102412.70
2023-03-13T06:49:24.878Z,102415.35
2023-03-13T06:51:59.271Z,102411.54
2023-03-13T06:54:28.260Z,102413.06
2023-03-13T06:56:56.431Z,102411.84
2023-03-13T06:59:25.122Z,102416.73
2023-03-13T07:01:53.599Z,102417.77
2023-03-13T07:04:22.075Z,102412.34
2023-03-13T07:06:52.312Z,102410.80
2023-03-13T07:09:20.586Z,102408.81
2023-03-13T07:11:52.879Z,102410.55
2023-03-13T07:14:22.459Z,102415.41
2023-03-13T07:16:50.885Z,102409.23
2023-03-13T07:19:21.717Z,102409.42
2023-03-13T07:21:50.561Z,102411.73
2023-03-13T07:24:24.076Z,102410.80
2023-03-13T07:27:04.933Z,102410.25
2023-03-13T07:29:35.872Z,102411.50
2023-03-13T07:32:04.835Z,102414.84
2023-03-13T07:34:34.390Z,102418.68
2023-03-13T07:37:05.618Z,102420.41
2023-03-13T07:39:34.516Z,102422.46
2023-03-13T07:42:07.589Z,102427.98
2023-03-13T07:44:38.757Z,102427.20
2023-03-13T07:47:07.707Z,102430.05
2023-03-13T07:49:41.429Z,102429.23
2023-03-13T07:52:10.469Z,102430.66
2023-03-13T07:54:43.104Z,102431.39
2023-03-13T07:57:11.786Z,102433.32
2023-03-13T07:59:40.370Z,102432.98
2023-03-13T08:02:10.139Z,102432.64
2023-03-13T08:04:38.557Z,102429.88
2023-03-13T08:07:10.292Z,102432.13
2023-03-13T08:09:38.821Z,102433.70
2023-03-13T08:12:09.321Z,102434.90
2023-03-13T08:14:37.805Z,102434.38
2023-03-13T08:17:06.595Z,102439.95
2023-03-13T08:19:40.498Z,102440.95
2023-03-13T08:22:08.734Z,102439.91
2023-03-13T08:24:37.053Z,102442.52
2023-03-13T08:27:05.425Z,102441.48
2023-03-13T08:29:33.911Z,102443.91
2023-03-13T08:32:05.045Z,102442.85
2023-03-13T08:34:35.471Z,102438.16
2023-03-13T08:37:04.257Z,102439.17
2023-03-13T08:39:33.573Z,102439.19
2023-03-13T08:42:02.252Z,102443.19
2023-03-13T08:44:31.249Z,102439.19
2023-03-13T08:47:00.231Z,102439.52
2023-03-13T08:49:28.720Z,102442.13
2023-03-13T08:51:57.297Z,102441.61
2023-03-13T08:54:25.714Z,102439.70
2023-03-13T08:56:54.270Z,102438.83
2023-03-13T08:59:22.851Z,102437.78
2023-03-13T09:01:56.034Z,102432.23
2023-03-13T09:04:24.519Z,102429.79
2023-03-13T09:06:53.507Z,102426.67
2023-03-13T09:09:24.960Z,102432.76
2023-03-13T09:11:55.998Z,102438.69
2023-03-13T09:14:24.885Z,102438.86
2023-03-13T09:16:56.748Z,102435.57
2023-03-13T09:19:25.124Z,102431.92
2023-03-13T09:21:57.607Z,102430.35
2023-03-13T09:24:26.081Z,102432.10
2023-03-13T09:27:01.117Z,102433.84
2023-03-13T09:29:30.824Z,102435.78
2023-03-13T09:32:00.017Z,102439.95
2023-03-13T09:34:28.603Z,102444.13
2023-03-13T09:36:57.389Z,102447.45
2023-03-13T09:39:27.289Z,102446.74
2023-03-13T09:42:04.521Z,102450.73
2023-03-13T09:44:38.504Z,102450.04
2023-03-13T09:47:16.193Z,102448.81
2023-03-13T09:50:05.566Z,102447.61
2023-03-13T09:52:36.619Z,102446.21
2023-03-13T09:55:06.312Z,102442.02
2023-03-13T09:57:38.078Z,102444.30
2023-03-13T10:00:14.853Z,102447.59
2023-03-13T10:02:45.725Z,102443.06
2023-03-13T10:05:19.412Z,102442.88
2023-03-13T10:07:47.756Z,102441.13
2023-03-13T10:10:29.448Z,102431.39
2023-03-13T10:13:00.134Z,102424.59
2023-03-13T10:15:57.878Z,102423.17
2023-03-13T10:18:27.553Z,102422.29
2023-03-13T10:20:58.902Z,102418.97
2023-03-13T10:23:41.104Z,102417.55
2023-03-13T10:26:18.001Z,102414.23
2023-03-13T10:28:46.668Z,102415.28
2023-03-13T10:31:22.044Z,102412.51
2023-03-13T10:33:51.029Z,102416.34
2023-03-13T10:36:20.606Z,102416.52
2023-03-13T10:38:54.103Z,102416.34
2023-03-13T10:41:32.029Z,102417.55
2023-03-13T10:44:21.563Z,102411.81
2023-03-13T10:46:51.741Z,102410.61
2023-03-13T10:49:22.254Z,102408.68
2023-03-13T10:51:55.075Z,102403.83
2023-03-13T10:54:27.480Z,102402.24
2023-03-13T10:57:08.824Z,102399.13
2023-03-13T10:59:44.016Z,102390.62
2023-03-13T11:02:25.223Z,102386.80
2023-03-13T11:04:54.380Z,102378.27
2023-03-13T11:07:27.220Z,102378.25
2023-03-13T11:10:20.664Z,102380.36
2023-03-13T11:12:52.489Z,102374.80
2023-03-13T11:15:41.652Z,102370.98
2023-03-13T11:18:30.315Z,102370.46
2023-03-13T11:21:08.704Z,102368.53
2023-03-13T11:23:47.460Z,102366.63
2023-03-13T11:26:15.831Z,102368.70
2023-03-13T11:28:51.167Z,102368.73
2023-03-13T11:31:24.931Z,102364.70
2023-03-13T11:34:11.980Z,102364.01
2023-03-13T11:36:52.679Z,102363.14
2023-03-13T11:39:36.707Z,102359.31
2023-03-13T11:42:17.844Z,102354.30
2023-03-13T11:45:14.250Z,102353.45
2023-03-13T11:47:53.862Z,102355.36
2023-03-13T11:51:13.971Z,102355.55
2023-03-13T11:54:10.070Z,102348.58
2023-03-13T11:56:57.697Z,102346.48
2023-03-13T11:59:33.039Z,102346.48
2023-03-13T12:02:14.897Z,102345.63
2023-03-13T12:04:44.812Z,102348.20
2023-03-13T12:07:34.930Z,102346.12
2023-03-13T12:10:12.871Z,102345.96
2023-03-13T12:12:59.336Z,102346.66
2023-03-13T12:15:41.206Z,102340.21
2023-03-13T12:18:15.240Z,102347.16
2023-03-13T12:20:50.307Z,102347.52
2023-03-13T12:23:29.577Z,102348.39
2023-03-13T12:26:07.625Z,102343.88
2023-03-13T12:29:02.312Z,102340.40
2023-03-13T12:31:51.285Z,102345.27
2023-03-13T12:34:27.599Z,102345.63
2023-03-13T12:36:55.913Z,102337.78
2023-03-13T12:39:34.815Z,102337.96
2023-03-13T12:42:29.335Z,102335.35
2023-03-13T12:44:58.631Z,102335.00
2023-03-13T12:47:33.769Z,102336.74
2023-03-13T12:50:37.888Z,102334.33
2023-03-13T12:53:25.412Z,102337.11
2023-03-13T12:56:12.744Z,102333.80
2023-03-13T12:59:14.091Z,102330.31
2023-03-13T13:01:47.769Z,102331.70
2023-03-13T13:04:18.332Z,102330.84
2023-03-13T13:07:07.021Z,102327.18
2023-03-13T13:09:38.626Z,102323.89
2023-03-13T13:12:23.804Z,102326.16
2023-03-13T13:14:52.380Z,102324.60
2023-03-13T13:17:32.123Z,102322.52
2023-03-13T13:20:23.746Z,102320.77
2023-03-13T13:22:52.955Z,102315.92
2023-03-13T13:25:24.900Z,102311.57
2023-03-13T13:27:54.506Z,102310.86
2023-03-13T13:30:24.112Z,102307.73
2023-03-13T13:33:19.088Z,102304.61
2023-03-13T13:35:49.481Z,102302.02
2023-03-13T13:38:30.617Z,102296.98
2023-03-13T13:41:11.525Z,102298.91
2023-03-13T13:43:46.333Z,102293.69
2023-03-13T13:46:33.957Z,102290.39
2023-03-13T13:52:33.272Z,102285.20
2023-03-13T13:55:03.287Z,102285.55
2023-03-13T13:57:33.201Z,102281.38
2023-03-13T14:00:24.135Z,102283.29
2023-03-13T14:02:54.110Z,102283.65
2023-03-13T14:05:30.748Z,102289.55
2023-03-13T14:08:08.118Z,102282.07
2023-03-13T14:11:11.314Z,102280.33
2023-03-13T14:13:41.099Z,102282.93
2023-03-13T14:16:28.050Z,102273.55
2023-03-13T14:19:00.178Z,102273.03
2023-03-13T14:21:28.963Z,102275.11
2023-03-13T14:23:57.547Z,102276.70
2023-03-13T14:26:27.751Z,102277.22
2023-03-13T14:29:03.258Z,102273.23
2023-03-13T14:31:32.698Z,102267.52
2023-03-13T14:34:08.484Z,102272.01
2023-03-13T14:37:17.768Z,102275.15
2023-03-13T14:39:49.181Z,102272.70
2023-03-13T14:42:18.766Z,102266.64
2023-03-13T14:44:48.855Z,102258.65
2023-03-13T14:47:17.080Z,102256.05
2023-03-13T14:49:46.256Z,102261.79
2023-03-13T14:52:25.383Z,102258.66
2023-03-13T14:54:56.116Z,102256.59
2023-03-13T14:57:27.542Z,102260.92
2023-03-13T14:59:56.253Z,102253.11
2023-03-13T15:02:32.587Z,102253.81
2023-03-13T15:05:11.492Z,102257.47
2023-03-13T15:07:51.598Z,102264.23
2023-03-13T15:10:32.916Z,102263.20
2023-03-13T15:13:19.740Z,102259.90
2023-03-13T15:15:48.404Z,102257.12
2023-03-13T15:18:26.780Z,102258.70
2023-03-13T15:21:00.486Z,102260.77
2023-03-13T15:23:30.395Z,102264.91
2023-03-13T15:25:59.082Z,102269.09
2023-03-13T15:28:27.666Z,102272.91
2023-03-13T15:30:57.784Z,102272.04
2023-03-13T15:33:28.422Z,102278.13
2023-03-13T15:35:57.003Z,102281.41
2023-03-13T15:38:26.657Z,102279.66
2023-03-13T15:40:55.189Z,102289.55
2023-03-13T15:43:23.771Z,102290.05
2023-03-13T15:45:52.719Z,102292.48
2023-03-13T15:48:25.763Z,102289.69
2023-03-13T15:50:59.284Z,102292.45
2023-03-13T15:53:29.718Z,102293.30
2023-03-13T15:56:00.541Z,102298.20
2023-03-13T15:58:29.733Z,102293.69
2023-03-13T16:00:58.326Z,102290.73
2023-03-13T16:03:28.510Z,102287.95
2023-03-13T16:05:57.206Z,102291.08
2023-03-13T16:08:36.395Z,102295.77
2023-03-13T16:11:05.900Z,102295.23
2023-03-13T16:13:34.323Z,102293.13
2023-03-13T16:16:17.879Z,102288.97
2023-03-13T16:18:47.394Z,102292.08
2023-03-13T16:21:28.450Z,102291.39
2023-03-13T16:23:56.905Z,102290.34
2023-03-13T16:26:28.698Z,102289.64
2023-03-13T16:28:58.070Z,102288.27
2023-03-13T16:31:28.352Z,102286.71
2023-03-13T16:33:56.812Z,102285.33
2023-03-13T16:36:28.544Z,102290.70
2023-03-13T16:39:00.387Z,102294.68
2023-03-13T16:41:29.487Z,102294.84
2023-03-13T16:43:58.064Z,102297.94
2023-03-13T16:46:30.724Z,102297.92
2023-03-13T16:48:59.932Z,102301.02
2023-03-13T16:51:28.641Z,102297.73
2023-03-13T16:53:57.518Z,102294.61
2023-03-13T16:56:34.185Z,102297.39
2023-03-13T16:59:03.965Z,102298.14
2023-03-13T17:01:32.274Z,102295.74
2023-03-13T17:04:01.193Z,102294.12
2023-03-13T17:06:48.076Z,102297.05
2023-03-13T17:09:19.033Z,102305.70
2023-03-13T17:11:48.311Z,102304.30
2023-03-13T17:14:16.781Z,102301.00
2023-03-13T17:16:51.315Z,102304.13
2023-03-13T17:19:20.531Z,102308.98
2023-03-13T17:21:49.509Z,102310.19
2023-03-13T17:24:17.776Z,102305.52
2023-03-13T17:26:48.549Z,102307.63
2023-03-13T17:29:18.976Z,102309.17
2023-03-13T17:31:47.558Z,102306.56
2023-03-13T17:34:20.334Z,102302.22
2023-03-13T17:36:49.195Z,102302.21
2023-03-13T17:39:17.463Z,102299.45
2023-03-13T17:41:46.459Z,102300.67
2023-03-13T17:44:15.253Z,102302.59
2023-03-13T17:46:46.668Z,102305.54
2023-03-13T17:49:17.250Z,102308.65
2023-03-13T17:51:46.552Z,102310.55
2023-03-13T17:54:16.014Z,102314.38
2023-03-13T17:56:44.917Z,102315.39
2023-03-13T17:59:15.754Z,102316.60
2023-03-13T18:01:44.273Z,102317.98
2023-03-13T18:04:13.336Z,102318.84
2023-03-13T18:06:43.363Z,102318.85
2023-03-13T18:09:19.160Z,102313.65
2023-03-13T18:11:48.737Z,102313.13
2023-03-13T18:14:17.594Z,102310.52
2023-03-13T18:16:48.192Z,102316.77
2023-03-13T18:19:22.701Z,102317.97
2023-03-13T18:21:53.684Z,102321.23
2023-03-13T18:24:28.220Z,102318.08
2023-03-13T18:26:56.798Z,102316.84
2023-03-13T18:29:29.465Z,102318.05
2023-03-13T18:32:00.686Z,102319.10
2023-03-13T18:34:29.091Z,102319.96
2023-03-13T18:37:06.893Z,102320.66
2023-03-13T18:39:35.787Z,102318.40
2023-03-13T18:42:04.202Z,102322.92
2023-03-13T18:44:33.777Z,102318.94
2023-03-13T18:47:02.357Z,102316.85
2023-03-13T18:49:31.242Z,102320.31
2023-03-13T18:51:59.926Z,102318.76
2023-03-13T18:54:30.562Z,102317.90
2023-03-13T18:56:59.040Z,102321.89
2023-03-13T18:59:27.727Z,102321.20
2023-03-13T19:01:57.155Z,102318.95
2023-03-13T19:04:25.503Z,102323.09
2023-03-13T19:06:57.878Z,102323.60
2023-03-13T19:09:42.691Z,102326.36
2023-03-13T19:12:12.652Z,102331.19
2023-03-13T19:14:41.035Z,102329.27
2023-03-13T19:17:29.614Z,102330.52
2023-03-13T19:20:01.958Z,102335.90
2023-03-13T19:22:30.975Z,102336.92
2023-03-13T19:24:59.328Z,102333.45
2023-03-13T19:27:27.913Z,102331.03
2023-03-13T19:29:56.194Z,102335.86
2023-03-13T19:32:25.149Z,102329.80
2023-03-13T19:34:53.598Z,102330.33
2023-03-13T19:37:22.140Z,102327.54
2023-03-13T19:39:51.042Z,102325.64
2023-03-13T19:42:19.306Z,102321.63
2023-03-13T19:44:50.139Z,102321.80
2023-03-13T19:47:18.448Z,102318.31
2023-03-13T19:49:49.983Z,102320.91
2023-03-13T19:52:19.403Z,102317.77
2023-03-13T19:54:48.068Z,102312.94
2023-03-13T19:57:18.275Z,102308.79
2023-03-13T19:59:46.873Z,102304.98
2023-03-13T20:02:17.686Z,102304.11
2023-03-13T20:04:46.446Z,102299.59
2023-03-13T20:07:14.762Z,102296.64
2023-03-13T20:09:46.923Z,102296.47
2023-03-13T20:12:17.759Z,102298.38
2023-03-13T20:14:46.446Z,102291.63
2023-03-13T20:17:14.901Z,102290.27
2023-03-13T20:19:43.332Z,102287.14
2023-03-13T20:22:11.802Z,102286.11
2023-03-13T20:24:41.722Z,102284.88
2023-03-13T20:27:10.079Z,102284.34
2023-03-13T20:29:38.458Z,102284.32
2023-03-13T20:32:07.340Z,102281.55
2023-03-13T20:34:36.954Z,102278.44
2023-03-13T20:37:05.539Z,102281.56
2023-03-13T20:39:38.647Z,102281.73
2023-03-13T20:42:08.530Z,102279.66
2023-03-13T20:44:36.832Z,102284.84
2023-03-13T20:47:06.423Z,102284.65
2023-03-13T20:49:35.038Z,102281.89
2023-03-13T20:52:05.237Z,102285.88
2023-03-13T20:54:34.526Z,102286.75
2023-03-13T20:57:08.958Z,102282.59
2023-03-13T20:59:37.733Z,102286.06
2023-03-13T21:02:06.793Z,102286.75
2023-03-13T21:04:38.061Z,102285.21
2023-03-13T21:07:06.756Z,102283.64
2023-03-13T21:09:36.887Z,102283.98
2023-03-13T21:12:05.969Z,102278.97
2023-03-13T21:14:36.607Z,102278.44
2023-03-13T21:17:05.036Z,102280.02
2023-03-13T21:19:34.480Z,102274.80
2023-03-13T21:22:03.275Z,102274.09
2023-03-13T21:24:33.903Z,102276.16
2023-03-13T21:27:03.098Z,102275.81
2023-03-13T21:29:37.747Z,102272.54
2023-03-13T21:32:07.354Z,102273.05
2023-03-13T21:34:36.019Z,102273.23
2023-03-13T21:37:06.135Z,102266.81
2023-03-13T21:39:35.025Z,102267.33
2023-03-13T21:42:04.630Z,102263.34
2023-03-13T21:44:33.622Z,102264.38
2023-03-13T21:47:03.076Z,102262.48
2023-03-13T21:49:32.018Z,102261.80
2023-03-13T21:52:00.297Z,102259.55
2023-03-13T21:54:28.773Z,102257.66
2023-03-13T21:56:57.598Z,102252.81
2023-03-13T21:59:35.057Z,102248.13
2023-03-13T22:02:05.179Z,102243.60
2023-03-13T22:04:34.163Z,102240.13
2023-03-13T22:07:03.158Z,102234.53
2023-03-13T22:09:31.941Z,102232.60
2023-03-13T22:12:05.014Z,102231.38
2023-03-13T22:14:33.818Z,102222.38
2023-03-13T22:17:02.102Z,102220.48
2023-03-13T22:19:30.416Z,102223.26
2023-03-13T22:22:00.390Z,102218.05
2023-03-13T22:24:28.969Z,102219.64
2023-03-13T22:26:57.664Z,102221.90
2023-03-13T22:29:30.718Z,102218.44
2023-03-13T22:31:59.128Z,102214.45
2023-03-13T22:34:28.320Z,102216.36
2023-03-13T22:36:58.650Z,102217.92
2023-03-13T22:39:28.044Z,102217.59
2023-03-13T22:41:56.736Z,102216.73
2023-03-13T22:44:25.538Z,102222.44
2023-03-13T22:46:54.075Z,102222.09
2023-03-13T22:49:24.114Z,102226.60
2023-03-13T22:51:52.389Z,102229.20
2023-03-13T22:54:20.870Z,102227.95
2023-03-13T22:56:49.555Z,102231.25
2023-03-13T22:59:18.243Z,102231.75
2023-03-13T23:01:46.621Z,102234.86
2023-03-13T23:04:15.520Z,102231.55
2023-03-13T23:06:43.785Z,102228.59
2023-03-13T23:09:15.344Z,102222.52
2023-03-13T23:11:44.024Z,102225.30
2023-03-13T23:14:18.855Z,102220.13
2023-03-13T23:16:47.642Z,102215.79
2023-03-13T23:19:16.164Z,102211.98
2023-03-13T23:21:45.626Z,102211.11
2023-03-13T23:24:14.244Z,102213.69
2023-03-13T23:26:42.801Z,102208.30
2023-03-13T23:29:11.044Z,102204.15
2023-03-13T23:31:40.474Z,102203.45
2023-03-13T23:34:08.880Z,102203.29
2023-03-13T23:36:37.842Z,102198.29
2023-03-13T23:39:07.552Z,102195.68
2023-03-13T23:41:37.676Z,102194.30
2023-03-13T23:44:06.257Z,102193.63
2023-03-13T23:46:35.246Z,102192.95
2023-03-13T23:49:03.828Z,102190.88
2023-03-13T23:51:32.828Z,102189.14
2023-03-13T23:54:01.094Z,102187.05
2023-03-13T23:56:31.523Z,102186.53
2023-03-13T23:58:59.797Z,102183.08
